Nenzel, Nebraska
Current Conditions -  °F | °C
As of 8:52 AM on Friday 19 Dec 2014 (Local Time) from KVTN Reporting Station
Clear Clear  
Wind Chill: 13°   Ceiling: Unl
Heat Index: 23°   Visibility: 10mi
Dew Point: 19°   Wind: 9mph
Humidity: 85%   Direction: 240°WSW
Pressure: 30.03"   Gusts: NA
Location:  42.93°N, 101.1°W
Report Text: KVTN 191552Z AUTO 24008KT 10SM CLR M05/M07 A3003 RMK AO2 SLP213 T10501072
Loading
Personal Weather Stations






























Interactive Weather Map New forecast layout! Learn more

10-Day Weather Forecast

Advertisements
Track Severe Weather on mobile